»·PEaware :: HAWG11 KLSV-KLSV

HAWG11 :: KLSV-KLSV

FLIGHT INFORMATION

Flight Status: Arrived
Operator: Unknown
More flights by this operator :: More flights under this callsign
Pilot: Logan D. (20254)
Aircraft: FAIRCHILD A-10 THUNDERBOLT 2
(A10)
More flights by this aircraft type
Origin: KLSV Nellis AFB
United States
Destination: KLSV Nellis AFB
United States
More flights between these airports :: More routes between these airports
Route: LSV FYTTR5 FYTTR INS/D1+00 INS DUDBE LSV
File this flight plan on PilotEdge
Remarks: LIVE MUNITION R4806W
Altitude:
(Current/Filed)
14,000ft
Speed:
(Current/Filed)
250kts
Departed: 08-Jan-19 10:34 AM
Arrived: 08-Jan-19 11:59 AM
Distance/Time
Traveled:
1nm/1:25
Distance/Time
To Go:
Arrived

Flight Plot

Page will automatically refresh every two minutes.

Flight plan parsing failed; only flown route is shown


Map Options




Map Legend


Flown Route
Filed Route
Departure Airport
Arrival Airport
Navaid (VOR, NDB)
Fix

Horizontal Profiles

Position Reports

Time Latitude Longitude Heading Altitude Ground
Speed
08-Jan-19 10:04 36.229635 -115.024495 87 1850ft 0kts
08-Jan-19 10:05 36.229635 -115.024495 87 1850ft 0kts
08-Jan-19 10:06 36.229635 -115.024495 87 1850ft 0kts
08-Jan-19 10:07 36.229635 -115.024495 87 1850ft 0kts
08-Jan-19 10:08 36.229635 -115.024495 87 1850ft 0kts
08-Jan-19 10:09 36.229635 -115.024495 87 1850ft 0kts
08-Jan-19 10:10 36.229635 -115.024495 87 1850ft 0kts
08-Jan-19 10:11 36.229635 -115.024495 87 1850ft 0kts
08-Jan-19 10:12 36.229635 -115.024495 87 1850ft 0kts
08-Jan-19 10:13 36.229635 -115.024495 87 1850ft 0kts
08-Jan-19 10:14 36.229635 -115.024495 87 1850ft 0kts
08-Jan-19 10:15 36.229635 -115.024495 87 1850ft 0kts
08-Jan-19 10:16 36.229635 -115.024495 87 1850ft 0kts
08-Jan-19 10:17 36.229635 -115.024495 87 1850ft 0kts
08-Jan-19 10:18 36.229635 -115.024495 87 1850ft 0kts
08-Jan-19 10:19 36.229635 -115.024495 87 1850ft 0kts
08-Jan-19 10:20 36.229635 -115.024495 87 1850ft 0kts
08-Jan-19 10:21 36.229635 -115.024495 87 1850ft 0kts
08-Jan-19 10:22 36.229635 -115.024495 87 1850ft 0kts
08-Jan-19 10:23 36.229635 -115.024495 87 1850ft 0kts
08-Jan-19 10:24 36.229635 -115.024495 87 1850ft 0kts
08-Jan-19 10:25 36.229635 -115.024495 87 1850ft 0kts
08-Jan-19 10:26 36.229635 -115.024495 87 1850ft 0kts
08-Jan-19 10:27 36.230058 -115.025048 278 1850ft 14kts
08-Jan-19 10:28 36.230723 -115.030552 268 1849ft 15kts
08-Jan-19 10:29 36.226951 -115.035678 220 1850ft 23kts
08-Jan-19 10:30 36.222643 -115.040816 282 1848ft 15kts
08-Jan-19 10:31 36.224433 -115.043251 320 1848ft 0kts
08-Jan-19 10:32 36.225579 -115.043387 39 1849ft 0kts
08-Jan-19 10:33 36.254316 -115.012504 40 2656ft 209kts
08-Jan-19 10:34 36.303478 -114.958290 41 5229ft 246kts
08-Jan-19 10:35 36.357160 -114.967664 278 7621ft 253kts
08-Jan-19 10:36 36.315830 -115.037877 222 9498ft 263kts
08-Jan-19 10:37 36.262098 -115.104045 232 10873ft 282kts
08-Jan-19 10:38 36.289043 -115.193632 297 11649ft 290kts
08-Jan-19 10:39 36.334420 -115.274342 306 13058ft 281kts
08-Jan-19 10:40 36.381967 -115.351967 306 14399ft 278kts
08-Jan-19 10:41 36.428900 -115.428637 306 15722ft 274kts
08-Jan-19 10:42 36.475073 -115.503882 306 17021ft 269kts
08-Jan-19 10:43 36.522174 -115.579962 306 14991ft 317kts
08-Jan-19 10:45 36.566995 -115.655614 305 13221ft 198kts
08-Jan-19 10:46 36.615959 -115.673528 12 12252ft 267kts
08-Jan-19 10:47 36.691249 -115.676452 333 11799ft 289kts
08-Jan-19 10:48 36.771764 -115.691624 23 10895ft 334kts
08-Jan-19 10:49 36.850962 -115.634483 345 3768ft 298kts
08-Jan-19 10:50 36.898633 -115.692820 354 6820ft 264kts
08-Jan-19 10:51 36.915173 -115.641869 163 8212ft 254kts
08-Jan-19 10:52 36.842908 -115.651687 265 8880ft 259kts
08-Jan-19 10:53 36.863782 -115.654695 129 5628ft 370kts
08-Jan-19 10:54 36.807697 -115.698340 271 7069ft 301kts
08-Jan-19 10:55 36.871756 -115.726776 34 8859ft 287kts
08-Jan-19 10:56 36.846015 -115.688707 233 8487ft 300kts
08-Jan-19 10:57 36.858679 -115.769850 347 10435ft 261kts
08-Jan-19 10:58 36.869531 -115.693879 115 10256ft 318kts
08-Jan-19 10:59 36.809453 -115.629217 198 10924ft 295kts
08-Jan-19 11:00 36.775697 -115.704808 300 12229ft 301kts
08-Jan-19 11:01 36.838328 -115.691594 79 11321ft 323kts
08-Jan-19 11:02 36.796332 -115.644333 221 10903ft 307kts
08-Jan-19 11:02 36.782831 -115.728051 274 11171ft 324kts
08-Jan-19 11:03 36.843473 -115.740531 61 10890ft 339kts
08-Jan-19 11:05 36.803473 -115.643072 186 11378ft 267kts
08-Jan-19 11:06 36.779114 -115.711608 329 12758ft 285kts
08-Jan-19 11:06 36.834060 -115.646785 54 5288ft 398kts
08-Jan-19 11:08 36.887424 -115.580395 149 7994ft 301kts
08-Jan-19 11:09 36.836924 -115.639318 191 5425ft 272kts
08-Jan-19 11:09 36.790244 -115.666929 283 8315ft 285kts
08-Jan-19 11:10 36.832614 -115.604880 110 6684ft 326kts
08-Jan-19 11:12 36.740877 -115.578903 216 8760ft 278kts
08-Jan-19 11:12 36.768944 -115.629490 357 9447ft 315kts
08-Jan-19 11:13 36.846235 -115.604278 89 9968ft 313kts
08-Jan-19 11:14 36.775815 -115.558274 170 11151ft 299kts
08-Jan-19 11:15 36.774957 -115.611685 343 11681ft 324kts
08-Jan-19 11:16 36.835850 -115.582766 119 11659ft 322kts
08-Jan-19 11:17 36.778368 -115.599551 254 12316ft 192kts
08-Jan-19 11:18 36.815059 -115.634618 9 12339ft 258kts
08-Jan-19 11:19 36.809614 -115.566171 154 11840ft 328kts
08-Jan-19 11:20 36.723215 -115.533924 178 11988ft 331kts
08-Jan-19 11:21 36.722910 -115.583053 353 9787ft 318kts
08-Jan-19 11:22 36.770003 -115.650290 263 10689ft 265kts
08-Jan-19 11:23 36.741040 -115.733587 200 10478ft 275kts
08-Jan-19 11:24 36.718526 -115.673297 29 10198ft 272kts
08-Jan-19 11:25 36.752433 -115.722185 225 10211ft 267kts
08-Jan-19 11:26 36.778022 -115.776767 21 10576ft 266kts
08-Jan-19 11:27 36.768944 -115.711111 179 10575ft 270kts
08-Jan-19 11:28 36.756234 -115.771983 343 10572ft 238kts
08-Jan-19 11:29 36.768441 -115.726585 170 10573ft 216kts
08-Jan-19 11:30 36.766580 -115.766330 13 10573ft 200kts
08-Jan-19 11:31 36.754199 -115.737975 233 10436ft 196kts
08-Jan-19 11:32 36.738471 -115.798857 160 9603ft 266kts
08-Jan-19 11:33 36.716447 -115.717928 113 10075ft 250kts
08-Jan-19 11:34 36.735882 -115.668033 326 10061ft 223kts
08-Jan-19 11:35 36.749364 -115.738373 227 9676ft 222kts
08-Jan-19 11:36 36.702200 -115.728799 88 10010ft 199kts
08-Jan-19 11:37 36.740821 -115.726714 19 9896ft 214kts
08-Jan-19 11:38 36.759474 -115.637227 98 9924ft 317kts
08-Jan-19 11:39 36.751936 -115.540409 56 10342ft 267kts
08-Jan-19 11:40 36.804292 -115.491241 343 12018ft 243kts
08-Jan-19 11:41 36.796093 -115.553559 191 11823ft 277kts
08-Jan-19 11:42 36.720096 -115.569041 222 11543ft 284kts
08-Jan-19 11:43 36.721961 -115.654765 322 11493ft 277kts
08-Jan-19 11:44 36.775096 -115.633492 130 11276ft 301kts
08-Jan-19 11:45 36.692397 -115.598263 165 11108ft 318kts
08-Jan-19 11:46 36.612212 -115.570309 161 10944ft 291kts
08-Jan-19 11:47 36.535494 -115.540319 161 10946ft 325kts
08-Jan-19 11:48 36.449770 -115.499987 141 10786ft 333kts
08-Jan-19 11:49 36.397725 -115.405756 117 10566ft 333kts
08-Jan-19 11:50 36.353323 -115.304969 117 10566ft 331kts
08-Jan-19 11:51 36.364868 -115.219424 34 10394ft 288kts
08-Jan-19 11:52 36.429717 -115.162427 65 9511ft 288kts
08-Jan-19 11:53 36.416567 -115.064656 101 8846ft 311kts
08-Jan-19 11:54 36.419306 -114.956371 101 9811ft 321kts
08-Jan-19 11:55 36.361623 -114.899209 182 6657ft 284kts
08-Jan-19 11:56 36.302658 -114.958714 221 4481ft 262kts
08-Jan-19 11:57 36.257438 -115.009063 220 2739ft 189kts
08-Jan-19 11:58 36.232728 -115.035551 189 1850ft 25kts
08-Jan-19 11:59 36.229578 -115.032873 215 1850ft 18kts
08-Jan-19 12:00 36.227482 -115.034110 130 1850ft 0kts

Navigation Log

Ident Type
Flight plan parsing failed, navigation log unavailable